Virtual Norwegian is not affiliated with Norwegian Air Shuttle in any way.
If you are looking for the real "Norwegian", or you wish to book Norwegian flights, please visit Norwegian.com


We use cookies to ensure you get the best experience on our website.   ACCEPT

LGSA - CHQ - Chania (Ioannis Daskalogiannis)

General Info Alternate Airport
ICAO: LGSA Elevation: 490 ft ICAO: LGIR
IATA: CHQ Country: Greece IATA: HER
City: Chania Charts: Log in to view charts City: Heraklion
Name: Ioannis Daskalogiannis Hub: No Name Nikos Kazantzakis
General Info
ICAO: LGSA
IATA: CHQ
City: Chania
Name: Ioannis Daskalogiannis
Elevation: 490 ft
Country: Greece
Charts: Log in to view charts
Hub: No
 
Alternate Airport
ICAO: LGIR
IATA: HER
City: Heraklion
Name: Nikos Kazantzakis

Weather
240920Z 32008KT CAVOK 29/21 Q1013
Weather
240920Z 32008KT CAVOK 29/21 Q1013

Runway Info
11
Length ILS/LOC Heading
3348 m N/A 112
29
Length ILS/LOC Heading
3348 m N/A 292

NOTAMs
NOTAMs currently unavailable.
NOTAMs
NOTAMs currently unavailable

Route map
Airport
Airport (hub)